ADDS METAR Data

Data at: 0743 UTC 24 Oct 2017

METAR for:KCON (Concord Muni, NH, US)
Text:KCON 240651Z AUTO 13007KT 10SM OVC008 17/16 A3008 RMK AO2 CIG 007V012 SLP184 T01670156
Temperature: 16.7°C ( 62°F)
Dewpoint: 15.6°C ( 60°F) [RH = 93%]
Pressure (altimeter):30.08 inches Hg (1018.7 mb) [Sea level pressure: 1018.4 mb]
Winds:from the SE (130 degrees) at 8 MPH (7 knots; 3.6 m/s)
Visibility:10 or more sm (16+ km)
Ceiling:800 feet AGL
Clouds: overcast cloud deck at 800 feet AGL
QC Flag:automated observation with no human augmentation